sensor_id;sensor_type;location;lat;lon;timestamp;temperature;humidity
75799;DHT22;64429;44.660;37.758;2022-10-22T00:00:13;26.76;58.52
75799;DHT22;64429;44.660;37.758;2022-10-22T00:02:43;26.76;58.45
75799;DHT22;64429;44.660;37.758;2022-10-22T00:05:11;26.76;57.96
75799;DHT22;64429;44.660;37.758;2022-10-22T00:07:39;26.76;58.19
75799;DHT22;64429;44.660;37.758;2022-10-22T00:10:08;26.77;58.19
75799;DHT22;64429;44.660;37.758;2022-10-22T00:12:36;26.76;58.25
75799;DHT22;64429;44.660;37.758;2022-10-22T00:17:18;26.77;58.65
75799;DHT22;64429;44.660;37.758;2022-10-22T00:19:46;26.76;58.74
75799;DHT22;64429;44.660;37.758;2022-10-22T00:22:14;26.77;58.79
75799;DHT22;64429;44.660;37.758;2022-10-22T00:24:42;26.77;59.11
75799;DHT22;64429;44.660;37.758;2022-10-22T00:27:11;26.79;59.46
75799;DHT22;64429;44.660;37.758;2022-10-22T00:29:40;26.78;58.88
75799;DHT22;64429;44.660;37.758;2022-10-22T00:32:08;26.77;59.57
75799;DHT22;64429;44.660;37.758;2022-10-22T00:34:36;26.77;59.77
75799;DHT22;64429;44.660;37.758;2022-10-22T00:37:04;26.76;59.75
75799;DHT22;64429;44.660;37.758;2022-10-22T00:39:32;26.76;59.68
75799;DHT22;64429;44.660;37.758;2022-10-22T00:42:00;26.73;59.80
75799;DHT22;64429;44.660;37.758;2022-10-22T00:44:59;26.75;59.32
75799;DHT22;64429;44.660;37.758;2022-10-22T00:49:43;26.73;59.43
75799;DHT22;64429;44.660;37.758;2022-10-22T00:52:12;26.72;59.48
75799;DHT22;64429;44.660;37.758;2022-10-22T00:54:41;26.73;59.49
75799;DHT22;64429;44.660;37.758;2022-10-22T00:57:10;26.73;59.64
75799;DHT22;64429;44.660;37.758;2022-10-22T00:59:38;26.71;59.68
75799;DHT22;64429;44.660;37.758;2022-10-22T01:02:07;26.72;59.67
75799;DHT22;64429;44.660;37.758;2022-10-22T01:04:37;26.71;59.70
75799;DHT22;64429;44.660;37.758;2022-10-22T01:07:05;26.72;60.18
75799;DHT22;64429;44.660;37.758;2022-10-22T01:09:35;26.71;60.35
75799;DHT22;64429;44.660;37.758;2022-10-22T01:12:33;26.71;59.86
75799;DHT22;64429;44.660;37.758;2022-10-22T01:15:17;26.70;60.35
75799;DHT22;64429;44.660;37.758;2022-10-22T01:25:55;26.73;61.46
75799;DHT22;64429;44.660;37.758;2022-10-22T01:31:53;26.72;61.68
75799;DHT22;64429;44.660;37.758;2022-10-22T01:34:24;26.71;61.92
75799;DHT22;64429;44.660;37.758;2022-10-22T01:36:54;26.71;61.79
75799;DHT22;64429;44.660;37.758;2022-10-22T01:39:23;26.71;61.86
75799;DHT22;64429;44.660;37.758;2022-10-22T01:41:53;26.70;61.60
75799;DHT22;64429;44.660;37.758;2022-10-22T01:46:36;26.69;61.83
75799;DHT22;64429;44.660;37.758;2022-10-22T01:52:00;26.69;62.22
75799;DHT22;64429;44.660;37.758;2022-10-22T01:54:46;26.70;62.28
75799;DHT22;64429;44.660;37.758;2022-10-22T02:00:10;26.67;62.31
75799;DHT22;64429;44.660;37.758;2022-10-22T02:03:15;26.67;62.43
75799;DHT22;64429;44.660;37.758;2022-10-22T02:05:52;26.68;62.39
75799;DHT22;64429;44.660;37.758;2022-10-22T02:08:23;26.67;62.40
75799;DHT22;64429;44.660;37.758;2022-10-22T02:10:54;26.67;62.56
75799;DHT22;64429;44.660;37.758;2022-10-22T02:13:31;26.66;62.41
75799;DHT22;64429;44.660;37.758;2022-10-22T02:16:03;26.66;62.25
75799;DHT22;64429;44.660;37.758;2022-10-22T02:18:34;26.66;62.26
75799;DHT22;64429;44.660;37.758;2022-10-22T02:21:05;26.67;62.12
75799;DHT22;64429;44.660;37.758;2022-10-22T02:23:35;26.65;62.02
75799;DHT22;64429;44.660;37.758;2022-10-22T02:26:10;26.66;61.99
75799;DHT22;64429;44.660;37.758;2022-10-22T02:28:55;26.66;62.06
75799;DHT22;64429;44.660;37.758;2022-10-22T02:31:29;26.66;62.33
75799;DHT22;64429;44.660;37.758;2022-10-22T02:34:02;26.66;62.29
75799;DHT22;64429;44.660;37.758;2022-10-22T02:36:32;26.65;62.41
75799;DHT22;64429;44.660;37.758;2022-10-22T02:39:01;26.65;62.56
75799;DHT22;64429;44.660;37.758;2022-10-22T02:41:29;26.64;62.45
75799;DHT22;64429;44.660;37.758;2022-10-22T02:43:58;26.65;62.20
75799;DHT22;64429;44.660;37.758;2022-10-22T02:46:26;26.63;62.60
75799;DHT22;64429;44.660;37.758;2022-10-22T02:48:54;26.63;62.40
75799;DHT22;64429;44.660;37.758;2022-10-22T02:51:22;26.61;62.31
75799;DHT22;64429;44.660;37.758;2022-10-22T02:53:50;26.61;62.52
75799;DHT22;64429;44.660;37.758;2022-10-22T02:56:18;26.61;62.57
75799;DHT22;64429;44.660;37.758;2022-10-22T02:58:46;26.61;62.30
75799;DHT22;64429;44.660;37.758;2022-10-22T03:01:15;26.62;62.45
75799;DHT22;64429;44.660;37.758;2022-10-22T03:03:44;26.61;62.76
75799;DHT22;64429;44.660;37.758;2022-10-22T03:06:14;26.60;62.52
75799;DHT22;64429;44.660;37.758;2022-10-22T03:08:42;26.61;62.85
75799;DHT22;64429;44.660;37.758;2022-10-22T03:11:10;26.60;62.73
75799;DHT22;64429;44.660;37.758;2022-10-22T03:13:38;26.60;62.64
75799;DHT22;64429;44.660;37.758;2022-10-22T03:16:06;26.60;62.56
75799;DHT22;64429;44.660;37.758;2022-10-22T03:18:34;26.60;62.68
75799;DHT22;64429;44.660;37.758;2022-10-22T03:23:18;26.58;62.80
75799;DHT22;64429;44.660;37.758;2022-10-22T03:25:48;26.58;62.65
75799;DHT22;64429;44.660;37.758;2022-10-22T03:28:17;26.58;62.71
75799;DHT22;64429;44.660;37.758;2022-10-22T03:30:45;26.58;63.18
75799;DHT22;64429;44.660;37.758;2022-10-22T03:33:27;26.57;63.40
75799;DHT22;64429;44.660;37.758;2022-10-22T03:40:37;26.57;63.50
75799;DHT22;64429;44.660;37.758;2022-10-22T03:43:05;26.57;63.56
75799;DHT22;64429;44.660;37.758;2022-10-22T03:45:34;26.58;63.78
75799;DHT22;64429;44.660;37.758;2022-10-22T03:48:07;26.57;63.66
75799;DHT22;64429;44.660;37.758;2022-10-22T03:50:35;26.58;63.73
75799;DHT22;64429;44.660;37.758;2022-10-22T03:53:03;26.58;63.54
75799;DHT22;64429;44.660;37.758;2022-10-22T03:55:31;26.57;63.60
75799;DHT22;64429;44.660;37.758;2022-10-22T03:58:00;26.60;63.53
75799;DHT22;64429;44.660;37.758;2022-10-22T04:00:29;26.60;63.62
75799;DHT22;64429;44.660;37.758;2022-10-22T04:02:58;26.60;63.44
75799;DHT22;64429;44.660;37.758;2022-10-22T04:05:26;26.61;63.74
75799;DHT22;64429;44.660;37.758;2022-10-22T04:07:54;26.58;61.76
75799;DHT22;64429;44.660;37.758;2022-10-22T04:10:22;26.61;62.90
75799;DHT22;64429;44.660;37.758;2022-10-22T04:12:52;26.63;63.25
75799;DHT22;64429;44.660;37.758;2022-10-22T04:15:20;26.63;63.23
75799;DHT22;64429;44.660;37.758;2022-10-22T04:17:48;26.64;63.16
75799;DHT22;64429;44.660;37.758;2022-10-22T04:20:16;26.65;63.93
75799;DHT22;64429;44.660;37.758;2022-10-22T04:22:44;26.64;61.82
75799;DHT22;64429;44.660;37.758;2022-10-22T04:25:12;26.64;62.92
75799;DHT22;64429;44.660;37.758;2022-10-22T04:27:41;26.65;63.35
75799;DHT22;64429;44.660;37.758;2022-10-22T04:30:09;26.64;63.11
75799;DHT22;64429;44.660;37.758;2022-10-22T04:32:37;26.65;62.95
75799;DHT22;64429;44.660;37.758;2022-10-22T04:35:06;26.66;63.06
75799;DHT22;64429;44.660;37.758;2022-10-22T04:37:34;26.68;62.50
75799;DHT22;64429;44.660;37.758;2022-10-22T04:40:03;26.70;62.25
75799;DHT22;64429;44.660;37.758;2022-10-22T04:42:31;26.71;62.07
75799;DHT22;64429;44.660;37.758;2022-10-22T04:44:59;26.73;61.93
75799;DHT22;64429;44.660;37.758;2022-10-22T04:47:27;26.75;61.77
75799;DHT22;64429;44.660;37.758;2022-10-22T04:49:55;26.79;61.59
75799;DHT22;64429;44.660;37.758;2022-10-22T04:52:23;26.82;61.70
75799;DHT22;64429;44.660;37.758;2022-10-22T04:54:51;26.87;61.38
75799;DHT22;64429;44.660;37.758;2022-10-22T04:57:19;26.92;61.54
75799;DHT22;64429;44.660;37.758;2022-10-22T04:59:47;26.96;61.44
75799;DHT22;64429;44.660;37.758;2022-10-22T05:02:15;27.01;61.29
75799;DHT22;64429;44.660;37.758;2022-10-22T05:04:44;27.04;61.27
75799;DHT22;64429;44.660;37.758;2022-10-22T05:07:12;27.07;60.80
75799;DHT22;64429;44.660;37.758;2022-10-22T05:09:40;27.12;60.59
75799;DHT22;64429;44.660;37.758;2022-10-22T05:12:09;27.15;60.25
75799;DHT22;64429;44.660;37.758;2022-10-22T05:14:37;27.19;60.08
75799;DHT22;64429;44.660;37.758;2022-10-22T05:17:07;27.20;60.08
75799;DHT22;64429;44.660;37.758;2022-10-22T05:19:35;27.24;59.85
75799;DHT22;64429;44.660;37.758;2022-10-22T05:22:04;27.26;59.60
75799;DHT22;64429;44.660;37.758;2022-10-22T05:24:34;27.28;59.68
75799;DHT22;64429;44.660;37.758;2022-10-22T05:27:04;27.29;59.40
75799;DHT22;64429;44.660;37.758;2022-10-22T05:29:32;27.34;59.57
75799;DHT22;64429;44.660;37.758;2022-10-22T05:32:00;27.36;59.24
75799;DHT22;64429;44.660;37.758;2022-10-22T05:34:28;27.40;59.11
75799;DHT22;64429;44.660;37.758;2022-10-22T05:36:56;27.40;59.16
75799;DHT22;64429;44.660;37.758;2022-10-22T05:39:24;27.42;59.19
75799;DHT22;64429;44.660;37.758;2022-10-22T05:41:52;27.46;59.26
75799;DHT22;64429;44.660;37.758;2022-10-22T05:44:20;27.47;59.02
75799;DHT22;64429;44.660;37.758;2022-10-22T05:46:48;27.51;58.90
75799;DHT22;64429;44.660;37.758;2022-10-22T05:49:18;27.53;58.81
75799;DHT22;64429;44.660;37.758;2022-10-22T05:51:46;27.56;58.59
75799;DHT22;64429;44.660;37.758;2022-10-22T05:54:19;27.58;58.77
75799;DHT22;64429;44.660;37.758;2022-10-22T05:56:49;27.59;58.74
75799;DHT22;64429;44.660;37.758;2022-10-22T05:59:17;27.63;58.52
75799;DHT22;64429;44.660;37.758;2022-10-22T06:01:45;27.66;58.50
75799;DHT22;64429;44.660;37.758;2022-10-22T06:04:14;27.68;58.59
75799;DHT22;64429;44.660;37.758;2022-10-22T06:06:48;27.69;54.75
75799;DHT22;64429;44.660;37.758;2022-10-22T06:09:19;27.72;54.21
75799;DHT22;64429;44.660;37.758;2022-10-22T06:11:49;27.73;51.06
75799;DHT22;64429;44.660;37.758;2022-10-22T06:14:18;27.75;51.17
75799;DHT22;64429;44.660;37.758;2022-10-22T06:16:48;27.75;51.06
75799;DHT22;64429;44.660;37.758;2022-10-22T06:19:20;27.78;51.94
75799;DHT22;64429;44.660;37.758;2022-10-22T06:22:12;27.79;52.30
75799;DHT22;64429;44.660;37.758;2022-10-22T06:24:40;27.79;52.49
75799;DHT22;64429;44.660;37.758;2022-10-22T06:27:09;27.80;52.43
75799;DHT22;64429;44.660;37.758;2022-10-22T06:29:43;27.81;51.75
75799;DHT22;64429;44.660;37.758;2022-10-22T06:32:10;27.82;51.85
75799;DHT22;64429;44.660;37.758;2022-10-22T06:34:38;27.84;51.82
75799;DHT22;64429;44.660;37.758;2022-10-22T06:37:08;27.84;52.16
75799;DHT22;64429;44.660;37.758;2022-10-22T06:39:37;27.85;51.56
75799;DHT22;64429;44.660;37.758;2022-10-22T06:42:05;27.86;51.45
75799;DHT22;64429;44.660;37.758;2022-10-22T06:44:47;27.89;51.72
75799;DHT22;64429;44.660;37.758;2022-10-22T06:47:15;27.90;51.77
75799;DHT22;64429;44.660;37.758;2022-10-22T06:49:42;27.89;51.67
75799;DHT22;64429;44.660;37.758;2022-10-22T06:52:11;27.91;51.40
75799;DHT22;64429;44.660;37.758;2022-10-22T06:54:39;27.91;51.19
75799;DHT22;64429;44.660;37.758;2022-10-22T06:57:07;27.94;51.44
75799;DHT22;64429;44.660;37.758;2022-10-22T06:59:35;27.93;51.45
75799;DHT22;64429;44.660;37.758;2022-10-22T07:02:04;27.96;51.43
75799;DHT22;64429;44.660;37.758;2022-10-22T07:04:33;27.96;51.22
75799;DHT22;64429;44.660;37.758;2022-10-22T07:07:01;27.97;51.03
75799;DHT22;64429;44.660;37.758;2022-10-22T07:09:29;27.97;51.15
75799;DHT22;64429;44.660;37.758;2022-10-22T07:11:57;27.97;50.72
75799;DHT22;64429;44.660;37.758;2022-10-22T07:14:25;27.99;51.21
75799;DHT22;64429;44.660;37.758;2022-10-22T07:16:53;27.99;51.50
75799;DHT22;64429;44.660;37.758;2022-10-22T07:19:22;27.99;51.53
75799;DHT22;64429;44.660;37.758;2022-10-22T07:21:50;27.98;50.66
75799;DHT22;64429;44.660;37.758;2022-10-22T07:24:20;27.97;48.07
75799;DHT22;64429;44.660;37.758;2022-10-22T07:27:02;27.99;46.19
75799;DHT22;64429;44.660;37.758;2022-10-22T07:29:33;28.00;46.97
75799;DHT22;64429;44.660;37.758;2022-10-22T07:32:03;28.01;49.00
75799;DHT22;64429;44.660;37.758;2022-10-22T07:34:31;28.01;48.68
75799;DHT22;64429;44.660;37.758;2022-10-22T07:36:59;28.02;48.60
75799;DHT22;64429;44.660;37.758;2022-10-22T07:39:27;28.01;49.13
75799;DHT22;64429;44.660;37.758;2022-10-22T07:41:57;27.99;47.05
75799;DHT22;64429;44.660;37.758;2022-10-22T07:44:31;28.00;46.09
75799;DHT22;64429;44.660;37.758;2022-10-22T07:47:02;27.99;45.07
75799;DHT22;64429;44.660;37.758;2022-10-22T07:49:30;27.99;45.17
75799;DHT22;64429;44.660;37.758;2022-10-22T07:52:06;27.96;44.23
75799;DHT22;64429;44.660;37.758;2022-10-22T07:54:34;27.91;45.07
75799;DHT22;64429;44.660;37.758;2022-10-22T07:57:08;27.87;45.73
75799;DHT22;64429;44.660;37.758;2022-10-22T07:59:37;27.81;43.98
75799;DHT22;64429;44.660;37.758;2022-10-22T08:02:06;27.74;40.27
75799;DHT22;64429;44.660;37.758;2022-10-22T08:04:34;27.70;39.76
75799;DHT22;64429;44.660;37.758;2022-10-22T08:07:09;27.64;38.98
75799;DHT22;64429;44.660;37.758;2022-10-22T08:09:37;27.59;35.54
75799;DHT22;64429;44.660;37.758;2022-10-22T08:12:07;27.52;36.19
75799;DHT22;64429;44.660;37.758;2022-10-22T08:14:35;27.46;35.58
75799;DHT22;64429;44.660;37.758;2022-10-22T08:17:14;27.41;35.37
75799;DHT22;64429;44.660;37.758;2022-10-22T08:19:44;27.36;34.29
75799;DHT22;64429;44.660;37.758;2022-10-22T08:22:12;27.29;33.87
75799;DHT22;64429;44.660;37.758;2022-10-22T08:24:40;27.26;34.58
75799;DHT22;64429;44.660;37.758;2022-10-22T08:27:10;27.21;34.48
75799;DHT22;64429;44.660;37.758;2022-10-22T08:29:45;27.15;34.21
75799;DHT22;64429;44.660;37.758;2022-10-22T08:32:15;27.13;34.63
75799;DHT22;64429;44.660;37.758;2022-10-22T08:34:45;27.07;33.90
75799;DHT22;64429;44.660;37.758;2022-10-22T08:37:15;27.01;33.85
75799;DHT22;64429;44.660;37.758;2022-10-22T08:39:45;26.98;35.14
75799;DHT22;64429;44.660;37.758;2022-10-22T08:50:42;26.82;33.89
75799;DHT22;64429;44.660;37.758;2022-10-22T08:53:20;26.77;33.90
75799;DHT22;64429;44.660;37.758;2022-10-22T08:55:52;26.75;33.11
75799;DHT22;64429;44.660;37.758;2022-10-22T09:01:14;26.68;33.78
75799;DHT22;64429;44.660;37.758;2022-10-22T09:06:54;26.62;33.41
75799;DHT22;64429;44.660;37.758;2022-10-22T09:09:32;26.58;34.13
75799;DHT22;64429;44.660;37.758;2022-10-22T09:12:05;26.56;34.09
75799;DHT22;64429;44.660;37.758;2022-10-22T09:14:35;26.54;34.34
75799;DHT22;64429;44.660;37.758;2022-10-22T09:17:24;26.53;34.88
75799;DHT22;64429;44.660;37.758;2022-10-22T09:20:06;26.49;34.47
75799;DHT22;64429;44.660;37.758;2022-10-22T09:22:56;26.47;34.00
75799;DHT22;64429;44.660;37.758;2022-10-22T09:25:30;26.47;35.29
75799;DHT22;64429;44.660;37.758;2022-10-22T09:28:20;26.45;35.53
75799;DHT22;64429;44.660;37.758;2022-10-22T09:30:55;26.43;33.54
75799;DHT22;64429;44.660;37.758;2022-10-22T09:33:27;26.41;33.38
75799;DHT22;64429;44.660;37.758;2022-10-22T09:36:01;26.39;34.02
75799;DHT22;64429;44.660;37.758;2022-10-22T09:38:38;26.39;34.44
75799;DHT22;64429;44.660;37.758;2022-10-22T09:41:14;26.37;35.21
75799;DHT22;64429;44.660;37.758;2022-10-22T09:43:47;26.38;35.34
75799;DHT22;64429;44.660;37.758;2022-10-22T09:46:21;26.37;35.85
75799;DHT22;64429;44.660;37.758;2022-10-22T09:49:12;26.37;36.03
75799;DHT22;64429;44.660;37.758;2022-10-22T09:51:53;26.37;36.33
75799;DHT22;64429;44.660;37.758;2022-10-22T09:59:40;26.33;34.69
75799;DHT22;64429;44.660;37.758;2022-10-22T10:02:18;26.31;35.29
75799;DHT22;64429;44.660;37.758;2022-10-22T10:05:02;26.28;35.63
75799;DHT22;64429;44.660;37.758;2022-10-22T10:07:52;26.30;35.80
75799;DHT22;64429;44.660;37.758;2022-10-22T10:10:36;26.27;35.95
75799;DHT22;64429;44.660;37.758;2022-10-22T10:13:53;26.28;38.08
75799;DHT22;64429;44.660;37.758;2022-10-22T10:25:13;26.18;36.13
75799;DHT22;64429;44.660;37.758;2022-10-22T10:30:50;26.13;36.34
75799;DHT22;64429;44.660;37.758;2022-10-22T10:36:16;26.02;34.01
75799;DHT22;64429;44.660;37.758;2022-10-22T10:39:05;25.93;32.86
75799;DHT22;64429;44.660;37.758;2022-10-22T10:42:03;25.88;32.35
75799;DHT22;64429;44.660;37.758;2022-10-22T10:45:10;25.78;31.85
75799;DHT22;64429;44.660;37.758;2022-10-22T10:50:46;25.67;31.33
75799;DHT22;64429;44.660;37.758;2022-10-22T10:59:17;25.62;32.36
75799;DHT22;64429;44.660;37.758;2022-10-22T11:01:58;25.61;32.04
75799;DHT22;64429;44.660;37.758;2022-10-22T11:07:48;25.63;33.49
75799;DHT22;64429;44.660;37.758;2022-10-22T11:16:08;25.68;34.84
75799;DHT22;64429;44.660;37.758;2022-10-22T11:18:57;25.69;34.07
75799;DHT22;64429;44.660;37.758;2022-10-22T11:29:01;25.74;34.69
75799;DHT22;64429;44.660;37.758;2022-10-22T11:31:33;25.75;34.37
75799;DHT22;64429;44.660;37.758;2022-10-22T11:34:16;25.76;33.36
75799;DHT22;64429;44.660;37.758;2022-10-22T11:37:03;25.75;34.62
75799;DHT22;64429;44.660;37.758;2022-10-22T11:39:44;25.78;34.04
75799;DHT22;64429;44.660;37.758;2022-10-22T11:42:35;25.77;32.38
75799;DHT22;64429;44.660;37.758;2022-10-22T11:50:26;25.77;33.64
75799;DHT22;64429;44.660;37.758;2022-10-22T11:52:58;25.77;33.09
75799;DHT22;64429;44.660;37.758;2022-10-22T12:00:46;25.77;32.22
75799;DHT22;64429;44.660;37.758;2022-10-22T12:05:34;25.77;32.29
75799;DHT22;64429;44.660;37.758;2022-10-22T12:08:15;25.77;32.59
75799;DHT22;64429;44.660;37.758;2022-10-22T12:18:14;25.76;31.97
75799;DHT22;64429;44.660;37.758;2022-10-22T12:23:00;25.75;32.02
75799;DHT22;64429;44.660;37.758;2022-10-22T12:25:35;25.75;31.25
75799;DHT22;64429;44.660;37.758;2022-10-22T12:28:11;25.72;30.64
75799;DHT22;64429;44.660;37.758;2022-10-22T12:35:41;25.53;32.20
75799;DHT22;64429;44.660;37.758;2022-10-22T12:38:16;25.46;31.55
75799;DHT22;64429;44.660;37.758;2022-10-22T12:40:49;25.42;32.23
75799;DHT22;64429;44.660;37.758;2022-10-22T12:43:32;25.33;31.97
75799;DHT22;64429;44.660;37.758;2022-10-22T12:50:43;25.21;32.38
75799;DHT22;64429;44.660;37.758;2022-10-22T12:53:23;25.20;32.13
75799;DHT22;64429;44.660;37.758;2022-10-22T12:55:56;25.15;32.26
75799;DHT22;64429;44.660;37.758;2022-10-22T13:03:43;25.06;32.27
75799;DHT22;64429;44.660;37.758;2022-10-22T13:09:36;24.87;33.02
75799;DHT22;64429;44.660;37.758;2022-10-22T13:18:21;24.94;34.81
75799;DHT22;64429;44.660;37.758;2022-10-22T13:23:16;25.02;35.79
75799;DHT22;64429;44.660;37.758;2022-10-22T13:26:19;25.03;35.68
75799;DHT22;64429;44.660;37.758;2022-10-22T13:28:56;25.04;34.95
75799;DHT22;64429;44.660;37.758;2022-10-22T13:31:36;25.07;35.99
75799;DHT22;64429;44.660;37.758;2022-10-22T13:34:18;25.08;35.77
75799;DHT22;64429;44.660;37.758;2022-10-22T13:36:50;25.08;36.03
75799;DHT22;64429;44.660;37.758;2022-10-22T13:39:23;25.10;36.19
75799;DHT22;64429;44.660;37.758;2022-10-22T13:41:56;25.06;36.08
75799;DHT22;64429;44.660;37.758;2022-10-22T13:49:18;25.04;36.11
75799;DHT22;64429;44.660;37.758;2022-10-22T13:51:52;25.03;36.18
75799;DHT22;64429;44.660;37.758;2022-10-22T13:56:52;25.04;35.53
75799;DHT22;64429;44.660;37.758;2022-10-22T13:59:22;25.05;36.30
75799;DHT22;64429;44.660;37.758;2022-10-22T14:01:54;25.00;33.27
75799;DHT22;64429;44.660;37.758;2022-10-22T14:04:27;24.89;34.66
75799;DHT22;64429;44.660;37.758;2022-10-22T14:07:02;24.87;34.99
75799;DHT22;64429;44.660;37.758;2022-10-22T14:16:32;24.88;36.26
75799;DHT22;64429;44.660;37.758;2022-10-22T14:19:17;24.90;35.99
75799;DHT22;64429;44.660;37.758;2022-10-22T14:24:12;24.90;36.20
75799;DHT22;64429;44.660;37.758;2022-10-22T14:26:41;24.91;35.60
75799;DHT22;64429;44.660;37.758;2022-10-22T14:32:26;24.92;36.74
75799;DHT22;64429;44.660;37.758;2022-10-22T14:41:53;24.93;38.16
75799;DHT22;64429;44.660;37.758;2022-10-22T14:44:24;24.94;40.13
75799;DHT22;64429;44.660;37.758;2022-10-22T14:49:20;24.93;39.03
75799;DHT22;64429;44.660;37.758;2022-10-22T14:51:51;24.94;39.41
75799;DHT22;64429;44.660;37.758;2022-10-22T14:54:24;24.95;39.29
75799;DHT22;64429;44.660;37.758;2022-10-22T14:57:04;24.98;40.36
75799;DHT22;64429;44.660;37.758;2022-10-22T14:59:34;24.98;41.09
75799;DHT22;64429;44.660;37.758;2022-10-22T15:02:04;24.99;41.32
75799;DHT22;64429;44.660;37.758;2022-10-22T15:04:37;25.02;41.64
75799;DHT22;64429;44.660;37.758;2022-10-22T15:07:22;25.03;41.99
75799;DHT22;64429;44.660;37.758;2022-10-22T15:09:57;25.05;42.83
75799;DHT22;64429;44.660;37.758;2022-10-22T15:12:35;25.08;43.00
75799;DHT22;64429;44.660;37.758;2022-10-22T15:15:05;25.12;43.61
75799;DHT22;64429;44.660;37.758;2022-10-22T15:17:36;25.14;44.84
75799;DHT22;64429;44.660;37.758;2022-10-22T15:22:43;25.17;45.40
75799;DHT22;64429;44.660;37.758;2022-10-22T15:25:29;25.18;45.79
75799;DHT22;64429;44.660;37.758;2022-10-22T15:28:01;25.21;46.38
75799;DHT22;64429;44.660;37.758;2022-10-22T15:30:42;25.24;47.80
75799;DHT22;64429;44.660;37.758;2022-10-22T15:33:10;25.24;47.55
75799;DHT22;64429;44.660;37.758;2022-10-22T15:35:40;25.25;48.06
75799;DHT22;64429;44.660;37.758;2022-10-22T15:38:14;25.29;49.11
75799;DHT22;64429;44.660;37.758;2022-10-22T15:40:44;25.30;49.17
75799;DHT22;64429;44.660;37.758;2022-10-22T15:45:29;25.33;49.92
75799;DHT22;64429;44.660;37.758;2022-10-22T15:47:59;25.32;50.14
75799;DHT22;64429;44.660;37.758;2022-10-22T15:54:54;25.37;51.24
75799;DHT22;64429;44.660;37.758;2022-10-22T15:57:37;25.38;51.82
75799;DHT22;64429;44.660;37.758;2022-10-22T16:00:16;25.39;52.21
75799;DHT22;64429;44.660;37.758;2022-10-22T16:07:47;25.43;54.66
75799;DHT22;64429;44.660;37.758;2022-10-22T16:10:37;25.43;53.64
75799;DHT22;64429;44.660;37.758;2022-10-22T16:13:13;25.45;54.42
75799;DHT22;64429;44.660;37.758;2022-10-22T16:15:43;25.43;54.75
75799;DHT22;64429;44.660;37.758;2022-10-22T16:18:19;25.44;55.07
75799;DHT22;64429;44.660;37.758;2022-10-22T16:23:38;25.47;55.46
75799;DHT22;64429;44.660;37.758;2022-10-22T16:26:05;25.46;55.94
75799;DHT22;64429;44.660;37.758;2022-10-22T16:28:35;25.49;54.19
75799;DHT22;64429;44.660;37.758;2022-10-22T16:35:41;25.47;52.27
75799;DHT22;64429;44.660;37.758;2022-10-22T16:38:11;25.45;51.72
75799;DHT22;64429;44.660;37.758;2022-10-22T16:43:04;25.44;51.15
75799;DHT22;64429;44.660;37.758;2022-10-22T16:47:52;25.46;50.68
75799;DHT22;64429;44.660;37.758;2022-10-22T16:54:53;25.44;50.50
75799;DHT22;64429;44.660;37.758;2022-10-22T16:59:51;25.43;49.60
75799;DHT22;64429;44.660;37.758;2022-10-22T17:02:20;25.43;48.84
75799;DHT22;64429;44.660;37.758;2022-10-22T17:04:51;25.42;47.86
75799;DHT22;64429;44.660;37.758;2022-10-22T17:07:21;25.40;47.65
75799;DHT22;64429;44.660;37.758;2022-10-22T17:09:52;25.42;47.86
75799;DHT22;64429;44.660;37.758;2022-10-22T17:12:41;25.39;47.28
75799;DHT22;64429;44.660;37.758;2022-10-22T17:15:10;25.39;46.99
75799;DHT22;64429;44.660;37.758;2022-10-22T17:17:38;25.38;46.79
75799;DHT22;64429;44.660;37.758;2022-10-22T17:20:09;25.36;46.73
75799;DHT22;64429;44.660;37.758;2022-10-22T17:22:39;25.38;46.84
75799;DHT22;64429;44.660;37.758;2022-10-22T17:25:16;25.36;46.86
75799;DHT22;64429;44.660;37.758;2022-10-22T17:32:11;25.35;46.88
75799;DHT22;64429;44.660;37.758;2022-10-22T17:34:43;25.34;46.73
75799;DHT22;64429;44.660;37.758;2022-10-22T17:37:16;25.35;46.57
75799;DHT22;64429;44.660;37.758;2022-10-22T17:39:48;25.35;47.22
75799;DHT22;64429;44.660;37.758;2022-10-22T17:44:30;25.36;47.29
75799;DHT22;64429;44.660;37.758;2022-10-22T17:46:59;25.36;47.47
75799;DHT22;64429;44.660;37.758;2022-10-22T17:49:30;25.37;47.76
75799;DHT22;64429;44.660;37.758;2022-10-22T17:51:58;25.37;47.81
75799;DHT22;64429;44.660;37.758;2022-10-22T17:54:32;25.39;48.04
75799;DHT22;64429;44.660;37.758;2022-10-22T17:57:04;25.42;48.03
75799;DHT22;64429;44.660;37.758;2022-10-22T17:59:38;25.42;48.16
75799;DHT22;64429;44.660;37.758;2022-10-22T18:02:13;25.43;48.00
75799;DHT22;64429;44.660;37.758;2022-10-22T18:04:50;25.44;48.22
75799;DHT22;64429;44.660;37.758;2022-10-22T18:07:21;25.46;48.14
75799;DHT22;64429;44.660;37.758;2022-10-22T18:09:51;25.48;48.05
75799;DHT22;64429;44.660;37.758;2022-10-22T18:12:22;25.48;47.96
75799;DHT22;64429;44.660;37.758;2022-10-22T18:17:04;25.51;47.83
75799;DHT22;64429;44.660;37.758;2022-10-22T18:19:34;25.51;47.84
75799;DHT22;64429;44.660;37.758;2022-10-22T18:22:16;25.52;47.91
75799;DHT22;64429;44.660;37.758;2022-10-22T18:27:03;25.54;47.88
75799;DHT22;64429;44.660;37.758;2022-10-22T18:29:37;25.53;47.47
75799;DHT22;64429;44.660;37.758;2022-10-22T18:32:07;25.53;47.34
75799;DHT22;64429;44.660;37.758;2022-10-22T18:34:39;25.56;47.47
75799;DHT22;64429;44.660;37.758;2022-10-22T18:37:08;25.56;47.18
75799;DHT22;64429;44.660;37.758;2022-10-22T18:44:22;25.56;46.79
75799;DHT22;64429;44.660;37.758;2022-10-22T18:46:54;25.54;46.78
75799;DHT22;64429;44.660;37.758;2022-10-22T18:51:46;25.54;46.15
75799;DHT22;64429;44.660;37.758;2022-10-22T18:56:53;25.52;45.15
75799;DHT22;64429;44.660;37.758;2022-10-22T18:59:24;25.50;44.79
75799;DHT22;64429;44.660;37.758;2022-10-22T19:01:55;25.50;45.28
75799;DHT22;64429;44.660;37.758;2022-10-22T19:09:09;25.47;45.43
75799;DHT22;64429;44.660;37.758;2022-10-22T19:14:00;25.45;45.29
75799;DHT22;64429;44.660;37.758;2022-10-22T19:16:35;25.44;45.29
75799;DHT22;64429;44.660;37.758;2022-10-22T19:19:06;25.43;45.12
75799;DHT22;64429;44.660;37.758;2022-10-22T19:21:36;25.42;45.56
75799;DHT22;64429;44.660;37.758;2022-10-22T19:29:05;25.40;45.79
75799;DHT22;64429;44.660;37.758;2022-10-22T19:38:20;25.40;46.20
75799;DHT22;64429;44.660;37.758;2022-10-22T19:40:51;25.43;46.42
75799;DHT22;64429;44.660;37.758;2022-10-22T19:43:23;25.43;46.31
75799;DHT22;64429;44.660;37.758;2022-10-22T19:55:44;25.45;46.25
75799;DHT22;64429;44.660;37.758;2022-10-22T20:00:27;25.44;45.76